To NAV CANADA Home Page Login to a new session Search on AWWS site Feedback and Comments Disclaimer Vers la page française équivalente Tips FAQ What's new on the site To the Forecasts and Observations / NOTAM section To "File a Flight Plan" website Publications and other links Update of the User's profile FIC Telephone Numbers My Weather Data Folder Route Weather Data Regional Weather Data Local Weather Data To the Forecasts and Observations / NOTAM section
Request Generated 03/28/2015 at 03:54:49 UTC . Weather information available at that time is displayed.

METAR/TAF

QUEBEC/JEAN LESAGE INTL/QC    

METAR CYQB 280300Z 35010KT 15SM SKC M04/M13 A2986 RMK SLP115=
METAR CYQB 280200Z 01008KT 15SM SKC M02/M12 A2984 RMK SLP109=
METAR CYQB 280100Z 34008KT 15SM FEW090 M01/M12 A2983 RMK AC1 AC TR
SLP106=

TAF CYQB 272338Z 2800/2824 31008KT P6SM FEW040 FEW100
FM280200 32008KT P6SM SCT025 TEMPO 2802/2809 BKN025
FM280900 34008KT P6SM SCT020 TEMPO 2809/2812 BKN020
FM281200 35008KT P6SM FEW030
BECMG 2813/2815 06006KT
BECMG 2816/2818 14006KT
RMK NXT FCST BY 280600Z=
Your time UTC time
Weather data provided by Environment Canada and NAV CANADA